createdAt,value
2022-09-24T00:01:39.686Z,12.37
2022-09-24T00:04:11.722Z,12.38
2022-09-24T00:06:44.875Z,12.39
2022-09-24T00:09:14.238Z,12.38
2022-09-24T00:11:43.770Z,12.39
2022-09-24T00:14:10.826Z,12.40
2022-09-24T00:16:39.778Z,12.38
2022-09-24T00:19:07.150Z,12.36
2022-09-24T00:21:35.515Z,12.35
2022-09-24T00:24:07.424Z,12.40
2022-09-24T00:26:49.540Z,12.41
2022-09-24T00:29:22.450Z,12.39
2022-09-24T00:31:50.601Z,12.40
2022-09-24T00:34:18.511Z,12.41
2022-09-24T00:36:48.769Z,12.39
2022-09-24T00:39:16.392Z,12.42
2022-09-24T00:41:47.296Z,12.35
2022-09-24T00:44:38.817Z,12.40
2022-09-24T00:47:06.262Z,12.37
2022-09-24T00:49:33.499Z,12.37
2022-09-24T00:52:00.787Z,12.40
2022-09-24T00:54:29.401Z,12.41
2022-09-24T00:56:58.729Z,12.44
2022-09-24T00:59:25.935Z,12.46
2022-09-24T01:01:57.778Z,12.49
2022-09-24T01:04:27.937Z,12.45
2022-09-24T01:06:56.740Z,12.38
2022-09-24T01:09:26.470Z,12.35
2022-09-24T01:12:05.325Z,12.33
2022-09-24T01:14:51.571Z,12.33
2022-09-24T01:17:45.187Z,12.33
2022-09-24T01:20:42.960Z,12.28
2022-09-24T01:23:35.823Z,12.20
2022-09-24T01:26:51.377Z,12.17
2022-09-24T01:29:32.265Z,12.19
2022-09-24T01:32:09.748Z,12.22
2022-09-24T01:34:47.945Z,12.25
2022-09-24T01:37:20.714Z,12.28
2022-09-24T01:39:49.079Z,12.19
2022-09-24T01:42:16.864Z,12.25
2022-09-24T01:44:44.760Z,12.22
2022-09-24T01:47:20.228Z,12.24
2022-09-24T01:49:47.486Z,12.28
2022-09-24T01:52:20.232Z,12.30
2022-09-24T01:54:52.008Z,12.30
2022-09-24T01:57:31.093Z,12.27
2022-09-24T02:00:12.255Z,12.28
2022-09-24T02:03:11.805Z,12.22
2022-09-24T02:05:45.937Z,12.25
2022-09-24T02:08:20.624Z,12.26
2022-09-24T02:10:51.153Z,12.25
2022-09-24T02:13:21.763Z,12.20
2022-09-24T02:15:52.270Z,12.14
2022-09-24T02:18:24.044Z,12.09
2022-09-24T02:20:52.900Z,12.10
2022-09-24T02:23:20.720Z,12.08
2022-09-24T02:25:58.136Z,12.11
2022-09-24T02:28:26.582Z,12.12
2022-09-24T02:31:07.034Z,12.10
2022-09-24T02:33:55.370Z,12.14
2022-09-24T02:36:25.015Z,12.15
2022-09-24T02:38:53.357Z,12.17
2022-09-24T02:41:23.620Z,12.15
2022-09-24T02:43:51.822Z,12.15
2022-09-24T02:46:19.236Z,12.21
2022-09-24T02:48:46.212Z,12.23
2022-09-24T02:51:13.198Z,12.29
2022-09-24T02:53:40.271Z,12.29
2022-09-24T02:56:08.094Z,12.29
2022-09-24T02:58:37.512Z,12.26
2022-09-24T03:01:05.445Z,12.29
2022-09-24T03:03:33.225Z,12.32
2022-09-24T03:06:00.227Z,12.34
2022-09-24T03:08:27.302Z,12.31
2022-09-24T03:10:56.277Z,12.29
2022-09-24T03:13:23.901Z,12.28
2022-09-24T03:15:50.939Z,12.25
2022-09-24T03:18:18.071Z,12.25
2022-09-24T03:20:55.123Z,12.25
2022-09-24T03:23:22.146Z,12.27
2022-09-24T03:25:49.295Z,12.20
2022-09-24T03:28:17.256Z,12.15
2022-09-24T03:31:00.271Z,12.10
2022-09-24T03:33:49.205Z,12.05
2022-09-24T03:36:28.599Z,11.96
2022-09-24T03:38:57.184Z,11.91
2022-09-24T03:41:26.980Z,11.81
2022-09-24T03:43:54.751Z,11.84
2022-09-24T03:46:24.412Z,11.85
2022-09-24T03:48:52.294Z,11.82
2022-09-24T03:51:20.319Z,11.77
2022-09-24T03:53:48.148Z,11.85
2022-09-24T03:56:16.239Z,11.89
2022-09-24T03:58:48.322Z,11.92
2022-09-24T04:01:20.781Z,11.86
2022-09-24T04:03:48.734Z,11.78
2022-09-24T04:06:16.312Z,11.78
2022-09-24T04:08:43.304Z,11.80
2022-09-24T04:11:10.311Z,11.88
2022-09-24T04:13:37.399Z,11.89
2022-09-24T04:16:05.371Z,11.96
2022-09-24T04:18:36.954Z,12.02
2022-09-24T04:21:06.059Z,12.00
2022-09-24T04:23:33.215Z,11.99
2022-09-24T04:26:02.969Z,11.90
2022-09-24T04:28:30.969Z,11.86
2022-09-24T04:30:58.432Z,11.86
2022-09-24T04:33:25.786Z,11.89
2022-09-24T04:35:52.891Z,11.94
2022-09-24T04:38:21.546Z,11.96
2022-09-24T04:40:49.151Z,11.92
2022-09-24T04:47:53.614Z,11.95
2022-09-24T04:50:21.117Z,12.00
2022-09-24T04:52:54.547Z,12.04
2022-09-24T04:55:22.669Z,12.05
2022-09-24T04:57:50.503Z,12.06
2022-09-24T05:00:20.289Z,12.07
2022-09-24T05:02:47.745Z,12.00
2022-09-24T05:05:15.265Z,11.97
2022-09-24T05:07:42.842Z,11.97
2022-09-24T05:10:10.324Z,12.03
2022-09-24T05:12:40.669Z,12.07
2022-09-24T05:15:08.057Z,12.07
2022-09-24T05:17:39.503Z,12.08
2022-09-24T05:20:11.324Z,12.09
2022-09-24T05:22:49.717Z,12.09
2022-09-24T05:25:18.763Z,12.11
2022-09-24T05:27:54.611Z,12.10
2022-09-24T05:30:23.937Z,12.11
2022-09-24T05:32:54.449Z,12.10
2022-09-24T05:35:23.093Z,12.07
2022-09-24T05:37:53.427Z,12.13
2022-09-24T05:40:40.154Z,12.09
2022-09-24T05:43:07.352Z,12.10
2022-09-24T05:45:34.377Z,12.09
2022-09-24T05:48:01.540Z,12.09
2022-09-24T05:50:29.142Z,12.08
2022-09-24T05:52:56.375Z,12.00
2022-09-24T05:55:23.265Z,12.07
2022-09-24T05:57:50.239Z,12.08
2022-09-24T06:00:17.218Z,12.12
2022-09-24T06:02:44.496Z,12.13
2022-09-24T06:05:12.854Z,12.13
2022-09-24T06:07:42.120Z,12.04
2022-09-24T06:10:09.392Z,12.13
2022-09-24T06:12:37.767Z,12.14
2022-09-24T06:19:37.663Z,12.09
2022-09-24T06:22:04.669Z,12.07
2022-09-24T06:24:35.066Z,12.05
2022-09-24T06:27:02.028Z,11.99
2022-09-24T06:29:28.940Z,11.99
2022-09-24T06:31:58.082Z,11.94
2022-09-24T06:34:33.571Z,11.95
2022-09-24T06:37:00.781Z,11.87
2022-09-24T06:39:27.817Z,11.91
2022-09-24T06:41:55.071Z,11.90
2022-09-24T06:44:22.535Z,11.90
2022-09-24T06:46:52.815Z,11.88
2022-09-24T06:49:23.966Z,11.88
2022-09-24T06:51:55.253Z,11.92
2022-09-24T06:54:22.951Z,11.92
2022-09-24T06:56:50.457Z,11.89
2022-09-24T06:59:17.496Z,11.89
2022-09-24T07:01:44.563Z,11.91
2022-09-24T07:04:11.997Z,11.98
2022-09-24T07:07:17.404Z,12.02
2022-09-24T07:09:44.366Z,12.02
2022-09-24T07:12:11.357Z,12.04
2022-09-24T07:14:38.334Z,12.05
2022-09-24T07:17:05.373Z,12.04
2022-09-24T07:19:32.424Z,12.07
2022-09-24T07:21:59.418Z,12.03
2022-09-24T07:24:26.437Z,12.03
2022-09-24T07:26:53.521Z,11.96
2022-09-24T07:29:20.624Z,11.98
2022-09-24T07:31:47.664Z,12.07
2022-09-24T07:34:14.597Z,12.02
2022-09-24T07:36:45.184Z,12.03
2022-09-24T07:39:12.113Z,12.04
2022-09-24T07:41:42.583Z,12.03
2022-09-24T07:44:10.064Z,12.05
2022-09-24T07:46:37.352Z,12.08
2022-09-24T07:49:07.072Z,12.07
2022-09-24T07:51:35.447Z,12.05
2022-09-24T07:54:02.612Z,12.12
2022-09-24T07:56:32.333Z,12.12
2022-09-24T07:58:59.384Z,12.16
2022-09-24T08:01:27.489Z,12.13
2022-09-24T08:03:55.090Z,12.13
2022-09-24T08:06:23.325Z,12.10
2022-09-24T08:08:52.666Z,12.13
2022-09-24T08:11:21.679Z,12.14
2022-09-24T08:13:48.709Z,12.18
2022-09-24T08:16:16.617Z,12.19
2022-09-24T08:18:44.207Z,12.18
2022-09-24T08:21:12.090Z,12.21
2022-09-24T08:23:42.646Z,12.20
2022-09-24T08:26:13.842Z,12.14
2022-09-24T08:28:44.620Z,12.14
2022-09-24T08:31:13.548Z,12.06
2022-09-24T08:33:40.975Z,12.12
2022-09-24T08:36:10.011Z,12.06
2022-09-24T08:38:37.669Z,12.08
2022-09-24T08:41:13.791Z,12.12
2022-09-24T08:43:47.465Z,12.17
2022-09-24T08:46:38.064Z,12.18
2022-09-24T08:49:07.889Z,12.21
2022-09-24T08:51:41.551Z,12.21
2022-09-24T08:54:15.103Z,12.11
2022-09-24T08:56:46.038Z,12.22
2022-09-24T08:59:32.478Z,12.22
2022-09-24T09:02:21.267Z,12.23
2022-09-24T09:06:06.269Z,12.27
2022-09-24T09:09:07.789Z,12.26
2022-09-24T09:11:36.834Z,12.22
2022-09-24T09:14:15.224Z,12.26
2022-09-24T09:16:55.765Z,12.32
2022-09-24T09:19:28.873Z,12.34
2022-09-24T09:22:05.701Z,12.27
2022-09-24T09:25:04.362Z,12.31
2022-09-24T09:27:31.893Z,12.32
2022-09-24T09:30:04.318Z,12.32
2022-09-24T09:33:04.226Z,12.33
2022-09-24T09:35:55.475Z,12.38
2022-09-24T09:38:58.451Z,12.45
2022-09-24T09:41:37.345Z,12.48
2022-09-24T09:44:25.984Z,12.50
2022-09-24T09:47:25.959Z,12.48
2022-09-24T09:49:58.460Z,12.48
2022-09-24T09:52:29.623Z,12.50
2022-09-24T09:54:56.800Z,12.55
2022-09-24T09:57:26.108Z,12.51
2022-09-24T09:59:58.014Z,12.54
2022-09-24T10:02:33.689Z,12.58
2022-09-24T10:05:06.404Z,12.58
2022-09-24T10:07:44.862Z,12.58
2022-09-24T10:10:21.029Z,12.62
2022-09-24T10:12:48.132Z,12.60
2022-09-24T10:15:15.645Z,12.64
2022-09-24T10:17:44.546Z,12.63
2022-09-24T10:20:21.092Z,12.67
2022-09-24T10:23:02.502Z,12.73
2022-09-24T10:25:32.507Z,12.69
2022-09-24T10:28:27.759Z,12.67
2022-09-24T10:31:05.242Z,12.65
2022-09-24T10:33:40.821Z,12.63
2022-09-24T10:36:16.110Z,12.61
2022-09-24T10:38:44.743Z,12.62
2022-09-24T10:41:30.447Z,12.65
2022-09-24T10:44:03.384Z,12.66
2022-09-24T10:46:46.813Z,12.63
2022-09-24T10:49:27.246Z,12.65
2022-09-24T10:52:02.427Z,12.64
2022-09-24T10:54:51.143Z,12.66
2022-09-24T10:57:49.666Z,12.74
2022-09-24T11:00:23.737Z,12.81
2022-09-24T11:02:54.118Z,12.84
2022-09-24T11:05:30.166Z,12.83
2022-09-24T11:08:17.249Z,12.81
2022-09-24T11:11:24.302Z,12.84
2022-09-24T11:14:06.632Z,12.86
2022-09-24T11:17:28.173Z,12.78
2022-09-24T11:20:20.542Z,12.88
2022-09-24T11:23:18.003Z,12.77
2022-09-24T11:25:58.432Z,12.83
2022-09-24T11:28:58.829Z,12.89
2022-09-24T11:31:39.797Z,12.92
2022-09-24T11:34:09.720Z,12.95
2022-09-24T11:36:57.868Z,12.97
2022-09-24T11:39:40.372Z,12.97
2022-09-24T11:42:38.194Z,12.97
2022-09-24T11:45:26.186Z,12.87
2022-09-24T11:48:27.167Z,12.83
2022-09-24T11:51:14.317Z,12.80
2022-09-24T11:53:41.646Z,12.73
2022-09-24T11:56:47.574Z,12.72
2022-09-24T11:59:42.034Z,12.66
2022-09-24T12:02:26.552Z,12.61
2022-09-24T12:04:56.660Z,12.53
2022-09-24T12:07:34.626Z,12.51
2022-09-24T12:10:19.504Z,12.52
2022-09-24T12:12:50.292Z,12.46
2022-09-24T12:15:25.227Z,12.43
2022-09-24T12:18:00.054Z,12.37
2022-09-24T12:20:29.700Z,12.37
2022-09-24T12:23:09.721Z,12.42
2022-09-24T12:25:46.385Z,12.44
2022-09-24T12:28:39.726Z,12.38
2022-09-24T12:31:38.766Z,12.42
2022-09-24T12:34:17.138Z,12.41
2022-09-24T12:37:11.770Z,12.43
2022-09-24T12:39:59.953Z,12.43
2022-09-24T12:42:35.022Z,12.42
2022-09-24T12:45:10.156Z,12.41
2022-09-24T12:47:56.559Z,12.37
2022-09-24T12:50:27.567Z,12.35
2022-09-24T12:52:59.777Z,12.36
2022-09-24T12:55:37.525Z,12.39
2022-09-24T12:58:07.341Z,12.36
2022-09-24T13:00:48.767Z,12.36
2022-09-24T13:03:37.398Z,12.33
2022-09-24T13:06:21.921Z,12.33
2022-09-24T13:08:50.580Z,12.32
2022-09-24T13:11:38.088Z,12.28
2022-09-24T13:14:14.125Z,12.26
2022-09-24T13:16:46.575Z,12.23
2022-09-24T13:19:33.823Z,12.23
2022-09-24T13:22:02.279Z,12.22
2022-09-24T13:24:45.914Z,12.23
2022-09-24T13:27:55.396Z,12.19
2022-09-24T13:30:36.055Z,12.21
2022-09-24T13:33:06.010Z,12.18
2022-09-24T13:36:03.340Z,12.15
2022-09-24T13:38:59.237Z,12.17
2022-09-24T13:42:00.417Z,12.19
2022-09-24T13:44:33.481Z,12.16
2022-09-24T13:47:12.945Z,12.13
2022-09-24T13:49:44.892Z,12.17
2022-09-24T13:52:22.747Z,12.15
2022-09-24T13:54:54.296Z,12.15
2022-09-24T13:57:24.857Z,12.07
2022-09-24T14:00:26.518Z,12.05
2022-09-24T14:03:18.381Z,12.08
2022-09-24T14:06:15.835Z,12.15
2022-09-24T14:08:47.059Z,12.13
2022-09-24T14:11:20.414Z,12.11
2022-09-24T14:13:47.922Z,12.08
2022-09-24T14:16:20.752Z,12.13
2022-09-24T14:18:48.522Z,12.11
2022-09-24T14:21:33.097Z,12.14
2022-09-24T14:24:27.801Z,12.11
2022-09-24T14:27:00.147Z,12.10
2022-09-24T14:29:34.786Z,12.07
2022-09-24T14:32:04.483Z,12.07
2022-09-24T14:34:39.126Z,12.08
2022-09-24T14:37:20.798Z,12.04
2022-09-24T14:39:52.024Z,11.98
2022-09-24T14:42:27.973Z,11.97
2022-09-24T14:44:56.058Z,11.96
2022-09-24T14:47:33.681Z,11.97
2022-09-24T14:50:04.085Z,11.97
2022-09-24T14:52:39.932Z,11.95
2022-09-24T14:55:15.517Z,11.91
2022-09-24T14:57:48.266Z,11.90
2022-09-24T15:00:28.144Z,11.90
2022-09-24T15:02:57.703Z,11.85
2022-09-24T15:05:27.916Z,11.90
2022-09-24T15:08:12.930Z,11.87
2022-09-24T15:10:55.098Z,11.85
2022-09-24T15:13:40.770Z,11.86
2022-09-24T15:16:33.969Z,11.83
2022-09-24T15:19:07.183Z,11.84
2022-09-24T15:21:36.784Z,11.86
2022-09-24T15:24:04.984Z,11.83
2022-09-24T15:26:34.568Z,11.84
2022-09-24T15:29:02.651Z,11.82
2022-09-24T15:31:31.684Z,11.80
2022-09-24T15:33:58.798Z,11.78
2022-09-24T15:36:26.040Z,11.79
2022-09-24T15:39:00.756Z,11.81
2022-09-24T15:41:27.810Z,11.77
2022-09-24T15:43:59.406Z,11.74
2022-09-24T15:46:28.904Z,11.73
2022-09-24T15:48:56.050Z,11.72
2022-09-24T15:51:23.566Z,11.75
2022-09-24T15:53:51.008Z,11.78
2022-09-24T15:56:18.132Z,11.77
2022-09-24T15:58:45.418Z,11.84
2022-09-24T16:01:21.974Z,11.86
2022-09-24T16:03:49.025Z,11.90
2022-09-24T16:06:16.118Z,11.92
2022-09-24T16:08:43.961Z,11.87
2022-09-24T16:11:11.302Z,11.85
2022-09-24T16:13:38.378Z,11.84
2022-09-24T16:16:08.850Z,11.82
2022-09-24T16:18:36.125Z,11.79
2022-09-24T16:21:08.324Z,11.81
2022-09-24T16:23:37.522Z,11.78
2022-09-24T16:26:05.336Z,11.76
2022-09-24T16:28:32.450Z,11.76
2022-09-24T16:30:59.658Z,11.74
2022-09-24T16:33:26.788Z,11.74
2022-09-24T16:35:54.013Z,11.73
2022-09-24T16:38:23.170Z,11.73
2022-09-24T16:40:59.892Z,11.77
2022-09-24T16:43:27.038Z,11.74
2022-09-24T16:45:54.133Z,11.69
2022-09-24T16:48:21.335Z,11.64
2022-09-24T16:50:49.583Z,11.66
2022-09-24T16:53:16.669Z,11.71
2022-09-24T16:55:43.789Z,11.68
2022-09-24T16:58:10.810Z,11.71
2022-09-24T17:00:42.670Z,11.72
2022-09-24T17:03:12.617Z,11.71
2022-09-24T17:05:42.563Z,11.71
2022-09-24T17:08:10.186Z,11.72
2022-09-24T17:10:41.408Z,11.75
2022-09-24T17:13:10.214Z,11.74
2022-09-24T17:16:03.324Z,11.84
2022-09-24T17:18:30.429Z,11.74
2022-09-24T17:21:04.569Z,11.79
2022-09-24T17:23:31.927Z,11.79
2022-09-24T17:26:17.324Z,11.84
2022-09-24T17:28:46.712Z,11.76
2022-09-24T17:31:16.241Z,11.78
2022-09-24T17:33:47.628Z,11.69
2022-09-24T17:36:17.204Z,11.70
2022-09-24T17:38:44.895Z,11.70
2022-09-24T17:41:14.321Z,11.68
2022-09-24T17:43:41.952Z,11.69
2022-09-24T17:46:17.795Z,11.67
2022-09-24T17:48:47.406Z,11.67
2022-09-24T17:51:22.844Z,11.61
2022-09-24T17:53:53.257Z,11.59
2022-09-24T17:56:22.807Z,11.60
2022-09-24T17:58:50.588Z,11.56
2022-09-24T18:01:20.758Z,11.51
2022-09-24T18:03:49.761Z,11.60
2022-09-24T18:06:16.892Z,11.61
2022-09-24T18:08:45.657Z,11.51
2022-09-24T18:11:21.714Z,11.57
2022-09-24T18:13:56.752Z,11.57
2022-09-24T18:16:26.856Z,11.52
2022-09-24T18:18:54.131Z,11.54
2022-09-24T18:21:23.350Z,11.57
2022-09-24T18:24:05.827Z,11.61
2022-09-24T18:26:35.685Z,11.63
2022-09-24T18:29:13.093Z,11.59
2022-09-24T18:31:40.915Z,11.63
2022-09-24T18:34:13.313Z,11.60
2022-09-24T18:36:41.831Z,11.60
2022-09-24T18:39:13.786Z,11.57
2022-09-24T18:41:42.200Z,11.53
2022-09-24T18:44:11.169Z,11.53
2022-09-24T18:46:39.629Z,11.62
2022-09-24T18:49:07.725Z,11.53
2022-09-24T18:51:39.106Z,11.52
2022-09-24T18:54:15.875Z,11.55
2022-09-24T18:56:43.757Z,11.53
2022-09-24T18:59:17.640Z,11.50
2022-09-24T19:01:47.021Z,11.48
2022-09-24T19:04:14.949Z,11.45
2022-09-24T19:06:44.515Z,11.42
2022-09-24T19:09:16.661Z,11.43
2022-09-24T19:11:45.773Z,11.45
2022-09-24T19:14:15.107Z,11.43
2022-09-24T19:16:42.241Z,11.42
2022-09-24T19:19:09.989Z,11.41
2022-09-24T19:21:37.915Z,11.43
2022-09-24T19:24:06.978Z,11.43
2022-09-24T19:26:35.924Z,11.47
2022-09-24T19:29:03.651Z,11.48
2022-09-24T19:31:36.614Z,11.40
2022-09-24T19:34:05.731Z,11.42
2022-09-24T19:36:43.039Z,11.42
2022-09-24T19:39:16.613Z,11.45
2022-09-24T19:41:44.741Z,11.47
2022-09-24T19:44:12.618Z,11.52
2022-09-24T19:46:41.158Z,11.49
2022-09-24T19:49:08.817Z,11.50
2022-09-24T19:51:36.819Z,11.48
2022-09-24T19:54:07.159Z,11.45
2022-09-24T19:56:38.567Z,11.45
2022-09-24T19:59:08.046Z,11.44
2022-09-24T20:01:35.525Z,11.40
2022-09-24T20:04:06.475Z,11.37
2022-09-24T20:06:35.658Z,11.31
2022-09-24T20:09:06.019Z,11.34
2022-09-24T20:11:33.492Z,11.36
2022-09-24T20:14:01.638Z,11.36
2022-09-24T20:16:32.763Z,11.31
2022-09-24T20:19:03.373Z,11.30
2022-09-24T20:21:38.547Z,11.29
2022-09-24T20:24:08.033Z,11.26
2022-09-24T20:26:53.895Z,11.23
2022-09-24T20:29:23.115Z,11.21
2022-09-24T20:31:52.980Z,11.17
2022-09-24T20:34:30.496Z,11.15
2022-09-24T20:37:01.477Z,11.19
2022-09-24T20:39:30.139Z,11.13
2022-09-24T20:42:02.467Z,11.11
2022-09-24T20:44:31.024Z,11.02
2022-09-24T20:46:59.188Z,10.82
2022-09-24T20:49:26.597Z,11.00
2022-09-24T20:51:57.354Z,10.93
2022-09-24T20:54:26.228Z,11.03
2022-09-24T21:01:07.943Z,11.01
2022-09-24T21:03:44.273Z,11.00
2022-09-24T21:06:13.098Z,10.99
2022-09-24T21:08:42.956Z,11.02
2022-09-24T21:11:12.423Z,11.00
2022-09-24T21:13:45.209Z,10.97
2022-09-24T21:16:12.557Z,10.93
2022-09-24T21:18:42.826Z,10.93
2022-09-24T21:21:11.761Z,10.87
2022-09-24T21:23:39.725Z,10.94
2022-09-24T21:26:16.150Z,10.96
2022-09-24T21:28:43.735Z,10.91
2022-09-24T21:31:11.367Z,10.99
2022-09-24T21:33:38.537Z,10.94
2022-09-24T21:36:07.431Z,10.92
2022-09-24T21:38:34.516Z,10.89
2022-09-24T21:41:02.960Z,10.93
2022-09-24T21:43:34.644Z,10.93
2022-09-24T21:46:06.795Z,10.91
2022-09-24T21:48:34.521Z,10.89
2022-09-24T21:51:07.294Z,10.85
2022-09-24T21:53:38.166Z,10.83
2022-09-24T21:56:06.374Z,10.85
2022-09-24T21:58:33.445Z,10.82
2022-09-24T22:01:05.025Z,10.80
2022-09-24T22:03:32.453Z,10.77
2022-09-24T22:06:03.443Z,10.76
2022-09-24T22:08:32.127Z,10.79
2022-09-24T22:11:07.873Z,10.81
2022-09-24T22:13:39.102Z,10.79
2022-09-24T22:16:13.150Z,10.78
2022-09-24T22:18:40.855Z,10.85
2022-09-24T22:21:13.458Z,10.86
2022-09-24T22:23:41.079Z,10.79
2022-09-24T22:26:10.667Z,10.83
2022-09-24T22:28:38.175Z,10.85
2022-09-24T22:31:11.059Z,10.88
2022-09-24T22:33:56.813Z,10.89
2022-09-24T22:36:26.115Z,10.92
2022-09-24T22:38:57.002Z,10.85
2022-09-24T22:41:24.762Z,10.88
2022-09-24T22:43:52.684Z,10.86
2022-09-24T22:46:27.462Z,10.95
2022-09-24T22:48:56.645Z,10.91
2022-09-24T22:51:27.385Z,10.87
2022-09-24T22:53:56.411Z,10.80
2022-09-24T22:56:26.457Z,10.72
2022-09-24T22:59:02.708Z,10.71
2022-09-24T23:01:35.711Z,10.70
2022-09-24T23:04:03.197Z,10.70
2022-09-24T23:06:31.518Z,10.69
2022-09-24T23:08:59.274Z,10.72
2022-09-24T23:11:31.646Z,10.72
2022-09-24T23:14:01.594Z,10.68
2022-09-24T23:16:35.243Z,10.65
2022-09-24T23:19:05.673Z,10.67
2022-09-24T23:21:34.247Z,10.70
2022-09-24T23:24:05.236Z,10.73
2022-09-24T23:26:33.130Z,10.74
2022-09-24T23:29:01.153Z,10.68
2022-09-24T23:31:32.086Z,10.60
2022-09-24T23:34:01.413Z,10.65
2022-09-24T23:36:34.211Z,10.67
2022-09-24T23:39:02.379Z,10.68
2022-09-24T23:41:31.968Z,10.67
2022-09-24T23:44:00.208Z,10.67
2022-09-24T23:46:27.758Z,10.72
2022-09-24T23:48:56.190Z,10.69
2022-09-24T23:51:23.110Z,10.68
2022-09-24T23:53:50.051Z,10.69
2022-09-24T23:56:17.195Z,10.68
2022-09-24T23:58:44.235Z,10.71
